sensor_id;sensor_type;location;lat;lon;timestamp;P1;durP1;ratioP1;P2;durP2;ratioP2
19664;SDS011;9980;51.020;7.772;2022-08-19T00:02:02;12.33;;;11.10;;
19664;SDS011;9980;51.020;7.772;2022-08-19T00:04:31;18.57;;;16.67;;
19664;SDS011;9980;51.020;7.772;2022-08-19T00:07:04;17.70;;;14.43;;
19664;SDS011;9980;51.020;7.772;2022-08-19T00:09:32;13.77;;;12.37;;
19664;SDS011;9980;51.020;7.772;2022-08-19T00:12:00;14.03;;;12.60;;
19664;SDS011;9980;51.020;7.772;2022-08-19T00:14:28;14.47;;;13.07;;
19664;SDS011;9980;51.020;7.772;2022-08-19T00:16:57;17.13;;;15.40;;
19664;SDS011;9980;51.020;7.772;2022-08-19T00:19:25;17.43;;;13.33;;
19664;SDS011;9980;51.020;7.772;2022-08-19T00:21:55;15.47;;;10.97;;
19664;SDS011;9980;51.020;7.772;2022-08-19T00:24:22;10.90;;;9.80;;
19664;SDS011;9980;51.020;7.772;2022-08-19T00:26:51;12.83;;;11.53;;
19664;SDS011;9980;51.020;7.772;2022-08-19T00:29:19;11.73;;;10.53;;
19664;SDS011;9980;51.020;7.772;2022-08-19T00:31:48;13.13;;;11.83;;
19664;SDS011;9980;51.020;7.772;2022-08-19T00:34:20;11.70;;;10.47;;
19664;SDS011;9980;51.020;7.772;2022-08-19T00:36:48;12.03;;;10.83;;
19664;SDS011;9980;51.020;7.772;2022-08-19T00:39:15;23.00;;;14.27;;
19664;SDS011;9980;51.020;7.772;2022-08-19T00:41:44;15.10;;;13.50;;
19664;SDS011;9980;51.020;7.772;2022-08-19T00:44:22;15.97;;;14.13;;
19664;SDS011;9980;51.020;7.772;2022-08-19T00:46:54;15.73;;;14.07;;
19664;SDS011;9980;51.020;7.772;2022-08-19T00:52:19;10.80;;;9.80;;
19664;SDS011;9980;51.020;7.772;2022-08-19T00:54:55;14.33;;;12.67;;
19664;SDS011;9980;51.020;7.772;2022-08-19T00:57:29;13.00;;;11.70;;
19664;SDS011;9980;51.020;7.772;2022-08-19T01:00:00;14.33;;;12.83;;
19664;SDS011;9980;51.020;7.772;2022-08-19T01:02:33;19.80;;;16.40;;
19664;SDS011;9980;51.020;7.772;2022-08-19T01:05:01;19.27;;;14.77;;
19664;SDS011;9980;51.020;7.772;2022-08-19T01:07:34;16.47;;;14.67;;
19664;SDS011;9980;51.020;7.772;2022-08-19T01:10:05;15.60;;;11.73;;
19664;SDS011;9980;51.020;7.772;2022-08-19T01:12:38;16.60;;;14.83;;
19664;SDS011;9980;51.020;7.772;2022-08-19T01:15:06;15.53;;;13.93;;
19664;SDS011;9980;51.020;7.772;2022-08-19T01:17:36;13.27;;;11.50;;
19664;SDS011;9980;51.020;7.772;2022-08-19T01:20:10;14.37;;;12.87;;
19664;SDS011;9980;51.020;7.772;2022-08-19T01:22:44;11.03;;;9.93;;
19664;SDS011;9980;51.020;7.772;2022-08-19T01:25:14;12.27;;;11.07;;
19664;SDS011;9980;51.020;7.772;2022-08-19T01:27:49;12.07;;;10.67;;
19664;SDS011;9980;51.020;7.772;2022-08-19T01:30:29;11.30;;;8.90;;
19664;SDS011;9980;51.020;7.772;2022-08-19T01:32:59;13.10;;;11.70;;
19664;SDS011;9980;51.020;7.772;2022-08-19T01:35:29;12.13;;;9.63;;
19664;SDS011;9980;51.020;7.772;2022-08-19T01:38:01;10.73;;;9.63;;
19664;SDS011;9980;51.020;7.772;2022-08-19T01:40:36;13.80;;;12.33;;
19664;SDS011;9980;51.020;7.772;2022-08-19T01:43:06;14.97;;;11.93;;
19664;SDS011;9980;51.020;7.772;2022-08-19T01:45:34;11.90;;;10.27;;
19664;SDS011;9980;51.020;7.772;2022-08-19T01:48:03;16.10;;;12.33;;
19664;SDS011;9980;51.020;7.772;2022-08-19T01:50:32;10.60;;;9.43;;
19664;SDS011;9980;51.020;7.772;2022-08-19T01:53:02;14.37;;;12.87;;
19664;SDS011;9980;51.020;7.772;2022-08-19T01:55:34;11.90;;;10.70;;
19664;SDS011;9980;51.020;7.772;2022-08-19T01:58:11;9.50;;;8.60;;
19664;SDS011;9980;51.020;7.772;2022-08-19T02:00:45;10.03;;;9.03;;
19664;SDS011;9980;51.020;7.772;2022-08-19T02:03:14;13.03;;;11.73;;
19664;SDS011;9980;51.020;7.772;2022-08-19T02:05:43;15.33;;;13.57;;
19664;SDS011;9980;51.020;7.772;2022-08-19T02:08:11;13.93;;;12.03;;
19664;SDS011;9980;51.020;7.772;2022-08-19T02:10:40;10.07;;;9.03;;
19664;SDS011;9980;51.020;7.772;2022-08-19T02:13:09;15.13;;;13.20;;
19664;SDS011;9980;51.020;7.772;2022-08-19T02:15:37;14.17;;;12.70;;
19664;SDS011;9980;51.020;7.772;2022-08-19T02:18:05;11.80;;;10.60;;
19664;SDS011;9980;51.020;7.772;2022-08-19T02:20:33;14.17;;;11.20;;
19664;SDS011;9980;51.020;7.772;2022-08-19T02:23:02;12.63;;;11.33;;
19664;SDS011;9980;51.020;7.772;2022-08-19T02:25:29;10.70;;;9.70;;
19664;SDS011;9980;51.020;7.772;2022-08-19T02:27:56;11.37;;;10.00;;
19664;SDS011;9980;51.020;7.772;2022-08-19T02:30:23;18.73;;;12.80;;
19664;SDS011;9980;51.020;7.772;2022-08-19T02:32:51;10.57;;;9.40;;
19664;SDS011;9980;51.020;7.772;2022-08-19T02:35:19;11.60;;;10.27;;
19664;SDS011;9980;51.020;7.772;2022-08-19T02:37:47;10.53;;;9.43;;
19664;SDS011;9980;51.020;7.772;2022-08-19T02:40:33;9.93;;;8.93;;
19664;SDS011;9980;51.020;7.772;2022-08-19T02:43:05;13.80;;;11.37;;
19664;SDS011;9980;51.020;7.772;2022-08-19T02:45:35;11.23;;;10.07;;
19664;SDS011;9980;51.020;7.772;2022-08-19T02:48:07;11.40;;;10.20;;
19664;SDS011;9980;51.020;7.772;2022-08-19T02:50:47;9.80;;;8.90;;
19664;SDS011;9980;51.020;7.772;2022-08-19T02:53:19;10.17;;;9.27;;
19664;SDS011;9980;51.020;7.772;2022-08-19T02:55:53;10.33;;;9.23;;
19664;SDS011;9980;51.020;7.772;2022-08-19T02:58:21;11.43;;;10.23;;
19664;SDS011;9980;51.020;7.772;2022-08-19T03:00:54;11.60;;;10.40;;
19664;SDS011;9980;51.020;7.772;2022-08-19T03:03:22;12.63;;;9.50;;
19664;SDS011;9980;51.020;7.772;2022-08-19T03:05:49;11.60;;;10.40;;
19664;SDS011;9980;51.020;7.772;2022-08-19T03:08:23;10.47;;;9.20;;
19664;SDS011;9980;51.020;7.772;2022-08-19T03:10:52;14.67;;;9.13;;
19664;SDS011;9980;51.020;7.772;2022-08-19T03:13:20;17.93;;;9.67;;
19664;SDS011;9980;51.020;7.772;2022-08-19T03:15:49;10.07;;;7.77;;
19664;SDS011;9980;51.020;7.772;2022-08-19T03:18:17;12.90;;;11.60;;
19664;SDS011;9980;51.020;7.772;2022-08-19T03:20:47;10.93;;;9.77;;
19664;SDS011;9980;51.020;7.772;2022-08-19T03:23:18;12.60;;;10.70;;
19664;SDS011;9980;51.020;7.772;2022-08-19T03:25:48;9.90;;;9.00;;
19664;SDS011;9980;51.020;7.772;2022-08-19T03:28:36;9.83;;;8.83;;
19664;SDS011;9980;51.020;7.772;2022-08-19T03:31:05;9.10;;;8.00;;
19664;SDS011;9980;51.020;7.772;2022-08-19T03:33:57;11.80;;;8.90;;
19664;SDS011;9980;51.020;7.772;2022-08-19T03:36:26;12.70;;;11.40;;
19664;SDS011;9980;51.020;7.772;2022-08-19T03:38:56;9.83;;;8.53;;
19664;SDS011;9980;51.020;7.772;2022-08-19T03:41:27;8.43;;;7.17;;
19664;SDS011;9980;51.020;7.772;2022-08-19T03:44:14;7.40;;;6.70;;
19664;SDS011;9980;51.020;7.772;2022-08-19T03:46:50;10.83;;;9.73;;
19664;SDS011;9980;51.020;7.772;2022-08-19T03:49:26;9.87;;;8.87;;
19664;SDS011;9980;51.020;7.772;2022-08-19T03:51:57;8.80;;;7.90;;
19664;SDS011;9980;51.020;7.772;2022-08-19T03:54:26;9.13;;;8.23;;
19664;SDS011;9980;51.020;7.772;2022-08-19T03:56:55;10.20;;;8.50;;
19664;SDS011;9980;51.020;7.772;2022-08-19T03:59:25;10.63;;;9.53;;
19664;SDS011;9980;51.020;7.772;2022-08-19T04:01:56;8.37;;;7.57;;
19664;SDS011;9980;51.020;7.772;2022-08-19T04:04:26;8.23;;;7.43;;
19664;SDS011;9980;51.020;7.772;2022-08-19T04:06:57;8.40;;;7.50;;
19664;SDS011;9980;51.020;7.772;2022-08-19T04:09:24;9.13;;;8.23;;
19664;SDS011;9980;51.020;7.772;2022-08-19T04:11:53;9.83;;;8.87;;
19664;SDS011;9980;51.020;7.772;2022-08-19T04:14:24;12.93;;;9.97;;
19664;SDS011;9980;51.020;7.772;2022-08-19T04:16:56;12.40;;;8.90;;
19664;SDS011;9980;51.020;7.772;2022-08-19T04:19:25;7.43;;;6.67;;
19664;SDS011;9980;51.020;7.772;2022-08-19T04:21:55;10.40;;;7.37;;
19664;SDS011;9980;51.020;7.772;2022-08-19T04:24:22;11.20;;;8.03;;
19664;SDS011;9980;51.020;7.772;2022-08-19T04:26:50;9.27;;;8.27;;
19664;SDS011;9980;51.020;7.772;2022-08-19T04:29:18;8.60;;;7.37;;
19664;SDS011;9980;51.020;7.772;2022-08-19T04:31:51;7.30;;;6.60;;
19664;SDS011;9980;51.020;7.772;2022-08-19T04:34:23;8.80;;;7.90;;
19664;SDS011;9980;51.020;7.772;2022-08-19T04:36:53;9.23;;;8.33;;
19664;SDS011;9980;51.020;7.772;2022-08-19T04:39:24;11.90;;;10.07;;
19664;SDS011;9980;51.020;7.772;2022-08-19T04:42:16;8.57;;;7.77;;
19664;SDS011;9980;51.020;7.772;2022-08-19T04:45:12;20.27;;;10.50;;
19664;SDS011;9980;51.020;7.772;2022-08-19T04:47:43;13.53;;;9.20;;
19664;SDS011;9980;51.020;7.772;2022-08-19T04:50:23;9.30;;;8.30;;
19664;SDS011;9980;51.020;7.772;2022-08-19T04:52:52;12.33;;;9.40;;
19664;SDS011;9980;51.020;7.772;2022-08-19T04:55:20;9.27;;;8.37;;
19664;SDS011;9980;51.020;7.772;2022-08-19T04:57:47;8.30;;;7.50;;
19664;SDS011;9980;51.020;7.772;2022-08-19T05:00:15;10.20;;;9.07;;
19664;SDS011;9980;51.020;7.772;2022-08-19T05:02:42;9.53;;;8.53;;
19664;SDS011;9980;51.020;7.772;2022-08-19T05:05:09;14.73;;;10.63;;
19664;SDS011;9980;51.020;7.772;2022-08-19T05:07:36;15.90;;;12.57;;
19664;SDS011;9980;51.020;7.772;2022-08-19T05:10:04;17.97;;;13.93;;
19664;SDS011;9980;51.020;7.772;2022-08-19T05:12:32;19.13;;;13.67;;
19664;SDS011;9980;51.020;7.772;2022-08-19T05:14:59;18.67;;;14.90;;
19664;SDS011;9980;51.020;7.772;2022-08-19T05:17:30;14.57;;;13.03;;
19664;SDS011;9980;51.020;7.772;2022-08-19T05:20:04;22.87;;;15.10;;
19664;SDS011;9980;51.020;7.772;2022-08-19T05:22:52;16.73;;;14.50;;
19664;SDS011;9980;51.020;7.772;2022-08-19T05:25:19;21.20;;;16.23;;
19664;SDS011;9980;51.020;7.772;2022-08-19T05:27:47;20.87;;;15.47;;
19664;SDS011;9980;51.020;7.772;2022-08-19T05:30:15;23.20;;;14.90;;
19664;SDS011;9980;51.020;7.772;2022-08-19T05:32:43;16.97;;;14.43;;
19664;SDS011;9980;51.020;7.772;2022-08-19T05:35:10;16.07;;;14.37;;
19664;SDS011;9980;51.020;7.772;2022-08-19T05:37:38;15.57;;;13.90;;
19664;SDS011;9980;51.020;7.772;2022-08-19T05:40:09;16.00;;;14.30;;
19664;SDS011;9980;51.020;7.772;2022-08-19T05:42:37;15.60;;;13.93;;
19664;SDS011;9980;51.020;7.772;2022-08-19T05:45:04;16.13;;;13.57;;
19664;SDS011;9980;51.020;7.772;2022-08-19T05:47:32;21.87;;;14.00;;
19664;SDS011;9980;51.020;7.772;2022-08-19T05:49:59;21.70;;;14.17;;
19664;SDS011;9980;51.020;7.772;2022-08-19T05:52:30;23.23;;;14.97;;
19664;SDS011;9980;51.020;7.772;2022-08-19T05:54:59;21.20;;;15.40;;
19664;SDS011;9980;51.020;7.772;2022-08-19T05:57:26;23.93;;;16.03;;
19664;SDS011;9980;51.020;7.772;2022-08-19T05:59:55;25.67;;;16.07;;
19664;SDS011;9980;51.020;7.772;2022-08-19T06:02:25;19.90;;;14.73;;
19664;SDS011;9980;51.020;7.772;2022-08-19T06:04:54;19.50;;;15.43;;
19664;SDS011;9980;51.020;7.772;2022-08-19T06:07:21;16.43;;;14.73;;
19664;SDS011;9980;51.020;7.772;2022-08-19T06:09:49;21.27;;;14.57;;
19664;SDS011;9980;51.020;7.772;2022-08-19T06:12:29;23.37;;;14.80;;
19664;SDS011;9980;51.020;7.772;2022-08-19T06:15:04;19.57;;;15.43;;
19664;SDS011;9980;51.020;7.772;2022-08-19T06:17:37;18.17;;;16.00;;
19664;SDS011;9980;51.020;7.772;2022-08-19T06:20:06;21.97;;;15.87;;
19664;SDS011;9980;51.020;7.772;2022-08-19T06:22:39;17.53;;;14.83;;
19664;SDS011;9980;51.020;7.772;2022-08-19T06:25:10;18.47;;;15.30;;
19664;SDS011;9980;51.020;7.772;2022-08-19T06:27:39;22.53;;;15.43;;
19664;SDS011;9980;51.020;7.772;2022-08-19T06:30:28;20.83;;;15.23;;
19664;SDS011;9980;51.020;7.772;2022-08-19T06:32:55;22.47;;;16.33;;
19664;SDS011;9980;51.020;7.772;2022-08-19T06:35:22;16.47;;;14.70;;
19664;SDS011;9980;51.020;7.772;2022-08-19T06:37:49;15.73;;;13.67;;
19664;SDS011;9980;51.020;7.772;2022-08-19T06:40:16;19.87;;;11.93;;
19664;SDS011;9980;51.020;7.772;2022-08-19T06:42:43;15.27;;;11.43;;
19664;SDS011;9980;51.020;7.772;2022-08-19T06:45:20;12.17;;;10.00;;
19664;SDS011;9980;51.020;7.772;2022-08-19T06:47:50;13.30;;;10.43;;
19664;SDS011;9980;51.020;7.772;2022-08-19T06:50:20;25.27;;;12.90;;
19664;SDS011;9980;51.020;7.772;2022-08-19T06:52:50;10.20;;;8.97;;
19664;SDS011;9980;51.020;7.772;2022-08-19T06:55:18;12.03;;;10.33;;
19664;SDS011;9980;51.020;7.772;2022-08-19T06:57:45;11.87;;;9.13;;
19664;SDS011;9980;51.020;7.772;2022-08-19T07:00:14;9.23;;;8.33;;
19664;SDS011;9980;51.020;7.772;2022-08-19T07:02:42;10.40;;;8.23;;
19664;SDS011;9980;51.020;7.772;2022-08-19T07:05:21;8.80;;;7.67;;
19664;SDS011;9980;51.020;7.772;2022-08-19T07:07:48;8.40;;;7.60;;
19664;SDS011;9980;51.020;7.772;2022-08-19T07:10:16;16.03;;;9.67;;
19664;SDS011;9980;51.020;7.772;2022-08-19T07:12:44;9.10;;;7.60;;
19664;SDS011;9980;51.020;7.772;2022-08-19T07:15:12;9.33;;;8.27;;
19664;SDS011;9980;51.020;7.772;2022-08-19T07:17:39;9.60;;;8.33;;
19664;SDS011;9980;51.020;7.772;2022-08-19T07:20:07;13.10;;;8.57;;
19664;SDS011;9980;51.020;7.772;2022-08-19T07:22:36;13.87;;;8.60;;
19664;SDS011;9980;51.020;7.772;2022-08-19T07:25:06;12.60;;;8.83;;
19664;SDS011;9980;51.020;7.772;2022-08-19T07:27:35;10.53;;;9.30;;
19664;SDS011;9980;51.020;7.772;2022-08-19T07:30:05;11.73;;;9.13;;
19664;SDS011;9980;51.020;7.772;2022-08-19T07:32:37;10.30;;;9.30;;
19664;SDS011;9980;51.020;7.772;2022-08-19T07:35:05;15.73;;;10.97;;
19664;SDS011;9980;51.020;7.772;2022-08-19T07:37:35;13.60;;;10.80;;
19664;SDS011;9980;51.020;7.772;2022-08-19T07:40:04;12.30;;;9.83;;
19664;SDS011;9980;51.020;7.772;2022-08-19T07:42:33;12.87;;;11.57;;
19664;SDS011;9980;51.020;7.772;2022-08-19T07:45:00;17.53;;;12.53;;
19664;SDS011;9980;51.020;7.772;2022-08-19T07:47:27;16.27;;;12.60;;
19664;SDS011;9980;51.020;7.772;2022-08-19T07:50:14;17.00;;;13.33;;
19664;SDS011;9980;51.020;7.772;2022-08-19T07:52:44;17.07;;;14.10;;
19664;SDS011;9980;51.020;7.772;2022-08-19T07:55:15;15.53;;;13.47;;
19664;SDS011;9980;51.020;7.772;2022-08-19T07:58:09;18.80;;;14.73;;
19664;SDS011;9980;51.020;7.772;2022-08-19T08:00:41;18.10;;;14.15;;
19664;SDS011;9980;51.020;7.772;2022-08-19T08:03:10;19.33;;;14.15;;
19664;SDS011;9980;51.020;7.772;2022-08-19T08:05:37;16.88;;;14.15;;
19664;SDS011;9980;51.020;7.772;2022-08-19T08:08:23;19.58;;;14.85;;
19664;SDS011;9980;51.020;7.772;2022-08-19T08:11:14;17.40;;;13.93;;
19664;SDS011;9980;51.020;7.772;2022-08-19T08:13:46;15.30;;;13.70;;
19664;SDS011;9980;51.020;7.772;2022-08-19T08:16:29;17.23;;;14.60;;
19664;SDS011;9980;51.020;7.772;2022-08-19T08:19:00;19.83;;;15.23;;
19664;SDS011;9980;51.020;7.772;2022-08-19T08:21:26;23.63;;;14.52;;
19664;SDS011;9980;51.020;7.772;2022-08-19T08:23:54;20.27;;;15.38;;
19664;SDS011;9980;51.020;7.772;2022-08-19T08:26:22;20.42;;;14.38;;
19664;SDS011;9980;51.020;7.772;2022-08-19T08:28:51;47.25;;;22.08;;
19664;SDS011;9980;51.020;7.772;2022-08-19T08:31:19;18.02;;;15.85;;
19664;SDS011;9980;51.020;7.772;2022-08-19T08:33:46;19.80;;;16.30;;
19664;SDS011;9980;51.020;7.772;2022-08-19T08:36:15;17.45;;;15.40;;
19664;SDS011;9980;51.020;7.772;2022-08-19T08:38:42;18.58;;;15.30;;
19664;SDS011;9980;51.020;7.772;2022-08-19T08:41:23;17.30;;;15.05;;
19664;SDS011;9980;51.020;7.772;2022-08-19T08:44:31;13.73;;;12.18;;
19664;SDS011;9980;51.020;7.772;2022-08-19T08:47:24;13.02;;;11.38;;
19664;SDS011;9980;51.020;7.772;2022-08-19T08:49:59;14.43;;;11.23;;
19664;SDS011;9980;51.020;7.772;2022-08-19T08:52:34;13.15;;;11.02;;
19664;SDS011;9980;51.020;7.772;2022-08-19T08:55:22;11.32;;;10.13;;
19664;SDS011;9980;51.020;7.772;2022-08-19T08:58:06;12.45;;;9.77;;
19664;SDS011;9980;51.020;7.772;2022-08-19T09:00:47;9.55;;;8.50;;
19664;SDS011;9980;51.020;7.772;2022-08-19T09:03:17;9.18;;;6.68;;
19664;SDS011;9980;51.020;7.772;2022-08-19T09:05:53;7.70;;;7.00;;
19664;SDS011;9980;51.020;7.772;2022-08-19T09:09:02;7.47;;;6.78;;
19664;SDS011;9980;51.020;7.772;2022-08-19T09:12:04;7.00;;;6.32;;
19664;SDS011;9980;51.020;7.772;2022-08-19T09:15:09;6.20;;;5.60;;
19664;SDS011;9980;51.020;7.772;2022-08-19T09:17:39;6.43;;;5.70;;
19664;SDS011;9980;51.020;7.772;2022-08-19T09:22:39;5.85;;;5.22;;
19664;SDS011;9980;51.020;7.772;2022-08-19T09:25:11;8.32;;;6.05;;
19664;SDS011;9980;51.020;7.772;2022-08-19T09:27:52;8.88;;;6.22;;
19664;SDS011;9980;51.020;7.772;2022-08-19T09:30:29;5.53;;;4.97;;
19664;SDS011;9980;51.020;7.772;2022-08-19T09:33:01;9.70;;;6.35;;
19664;SDS011;9980;51.020;7.772;2022-08-19T09:35:28;6.15;;;5.60;;
19664;SDS011;9980;51.020;7.772;2022-08-19T09:37:56;16.27;;;8.02;;
19664;SDS011;9980;51.020;7.772;2022-08-19T09:40:28;10.25;;;7.43;;
19664;SDS011;9980;51.020;7.772;2022-08-19T09:43:04;7.55;;;6.63;;
19664;SDS011;9980;51.020;7.772;2022-08-19T09:45:38;10.55;;;7.47;;
19664;SDS011;9980;51.020;7.772;2022-08-19T09:48:05;7.20;;;6.22;;
19664;SDS011;9980;51.020;7.772;2022-08-19T09:50:34;9.38;;;7.00;;
19664;SDS011;9980;51.020;7.772;2022-08-19T09:53:17;8.82;;;7.88;;
19664;SDS011;9980;51.020;7.772;2022-08-19T09:55:45;8.27;;;7.47;;
19664;SDS011;9980;51.020;7.772;2022-08-19T09:58:12;10.35;;;8.18;;
19664;SDS011;9980;51.020;7.772;2022-08-19T10:00:39;8.75;;;7.82;;
19664;SDS011;9980;51.020;7.772;2022-08-19T10:03:06;8.73;;;6.35;;
19664;SDS011;9980;51.020;7.772;2022-08-19T10:05:33;6.30;;;5.57;;
19664;SDS011;9980;51.020;7.772;2022-08-19T10:08:28;8.30;;;5.75;;
19664;SDS011;9980;51.020;7.772;2022-08-19T10:11:00;8.20;;;6.60;;
19664;SDS011;9980;51.020;7.772;2022-08-19T10:13:48;7.90;;;6.47;;
19664;SDS011;9980;51.020;7.772;2022-08-19T10:16:17;6.65;;;5.93;;
19664;SDS011;9980;51.020;7.772;2022-08-19T10:18:51;5.43;;;4.93;;
19664;SDS011;9980;51.020;7.772;2022-08-19T10:21:25;5.00;;;4.60;;
19664;SDS011;9980;51.020;7.772;2022-08-19T10:23:58;5.20;;;4.80;;
19664;SDS011;9980;51.020;7.772;2022-08-19T10:26:31;7.07;;;5.30;;
19664;SDS011;9980;51.020;7.772;2022-08-19T10:29:04;6.63;;;5.30;;
19664;SDS011;9980;51.020;7.772;2022-08-19T10:31:34;11.32;;;5.72;;
19664;SDS011;9980;51.020;7.772;2022-08-19T10:34:21;5.45;;;4.95;;
19664;SDS011;9980;51.020;7.772;2022-08-19T10:36:53;4.85;;;4.45;;
19664;SDS011;9980;51.020;7.772;2022-08-19T10:39:30;4.57;;;4.18;;
19664;SDS011;9980;51.020;7.772;2022-08-19T10:42:08;5.57;;;5.05;;
19664;SDS011;9980;51.020;7.772;2022-08-19T10:44:36;5.70;;;5.13;;
19664;SDS011;9980;51.020;7.772;2022-08-19T10:47:04;6.32;;;5.72;;
19664;SDS011;9980;51.020;7.772;2022-08-19T10:49:52;5.15;;;4.75;;
19664;SDS011;9980;51.020;7.772;2022-08-19T10:52:43;5.47;;;5.05;;
19664;SDS011;9980;51.020;7.772;2022-08-19T10:55:17;5.95;;;5.15;;
19664;SDS011;9980;51.020;7.772;2022-08-19T10:58:10;5.95;;;4.93;;
19664;SDS011;9980;51.020;7.772;2022-08-19T11:00:40;12.15;;;5.05;;
19664;SDS011;9980;51.020;7.772;2022-08-19T11:03:09;9.18;;;5.38;;
19664;SDS011;9980;51.020;7.772;2022-08-19T11:05:37;5.93;;;5.20;;
19664;SDS011;9980;51.020;7.772;2022-08-19T11:08:06;7.10;;;5.70;;
19664;SDS011;9980;51.020;7.772;2022-08-19T11:10:50;5.93;;;5.38;;
19664;SDS011;9980;51.020;7.772;2022-08-19T11:13:27;7.63;;;6.18;;
19664;SDS011;9980;51.020;7.772;2022-08-19T11:15:56;6.82;;;6.32;;
19664;SDS011;9980;51.020;7.772;2022-08-19T11:18:33;7.55;;;6.85;;
19664;SDS011;9980;51.020;7.772;2022-08-19T11:21:07;7.75;;;5.97;;
19664;SDS011;9980;51.020;7.772;2022-08-19T11:23:45;6.13;;;5.50;;
19664;SDS011;9980;51.020;7.772;2022-08-19T11:26:15;9.63;;;5.43;;
19664;SDS011;9980;51.020;7.772;2022-08-19T11:28:44;5.20;;;4.68;;
19664;SDS011;9980;51.020;7.772;2022-08-19T11:31:14;5.55;;;5.00;;
19664;SDS011;9980;51.020;7.772;2022-08-19T11:33:58;5.65;;;4.90;;
19664;SDS011;9980;51.020;7.772;2022-08-19T11:36:30;8.30;;;5.65;;
19664;SDS011;9980;51.020;7.772;2022-08-19T11:39:01;6.15;;;5.55;;
19664;SDS011;9980;51.020;7.772;2022-08-19T11:41:31;6.57;;;5.95;;
19664;SDS011;9980;51.020;7.772;2022-08-19T11:44:02;6.38;;;5.88;;
19664;SDS011;9980;51.020;7.772;2022-08-19T11:46:30;7.88;;;7.07;;
19664;SDS011;9980;51.020;7.772;2022-08-19T11:48:58;9.07;;;7.78;;
19664;SDS011;9980;51.020;7.772;2022-08-19T11:51:27;8.90;;;8.10;;
19664;SDS011;9980;51.020;7.772;2022-08-19T11:53:55;7.90;;;7.28;;
19664;SDS011;9980;51.020;7.772;2022-08-19T11:56:24;8.00;;;7.30;;
19664;SDS011;9980;51.020;7.772;2022-08-19T11:58:54;6.97;;;6.47;;
19664;SDS011;9980;51.020;7.772;2022-08-19T12:01:23;7.63;;;6.90;;
19664;SDS011;9980;51.020;7.772;2022-08-19T12:03:53;7.35;;;6.75;;
19664;SDS011;9980;51.020;7.772;2022-08-19T12:06:27;7.13;;;6.50;;
19664;SDS011;9980;51.020;7.772;2022-08-19T12:09:00;6.15;;;5.68;;
19664;SDS011;9980;51.020;7.772;2022-08-19T12:11:32;10.38;;;6.70;;
19664;SDS011;9980;51.020;7.772;2022-08-19T12:14:00;5.05;;;4.65;;
19664;SDS011;9980;51.020;7.772;2022-08-19T12:16:27;5.60;;;4.93;;
19664;SDS011;9980;51.020;7.772;2022-08-19T12:18:59;5.35;;;4.85;;
19664;SDS011;9980;51.020;7.772;2022-08-19T12:21:30;5.65;;;5.15;;
19664;SDS011;9980;51.020;7.772;2022-08-19T12:24:02;7.82;;;6.25;;
19664;SDS011;9980;51.020;7.772;2022-08-19T12:26:32;6.82;;;6.20;;
19664;SDS011;9980;51.020;7.772;2022-08-19T12:29:18;14.52;;;8.02;;
19664;SDS011;9980;51.020;7.772;2022-08-19T12:31:49;7.45;;;6.63;;
19664;SDS011;9980;51.020;7.772;2022-08-19T12:34:18;7.00;;;6.40;;
19664;SDS011;9980;51.020;7.772;2022-08-19T12:36:46;6.95;;;6.35;;
19664;SDS011;9980;51.020;7.772;2022-08-19T12:39:15;6.50;;;5.90;;
19664;SDS011;9980;51.020;7.772;2022-08-19T12:41:42;11.20;;;8.20;;
19664;SDS011;9980;51.020;7.772;2022-08-19T12:44:20;7.32;;;6.63;;
19664;SDS011;9980;51.020;7.772;2022-08-19T12:46:55;11.27;;;7.07;;
19664;SDS011;9980;51.020;7.772;2022-08-19T12:49:23;7.78;;;6.97;;
19664;SDS011;9980;51.020;7.772;2022-08-19T12:52:11;7.05;;;6.10;;
19664;SDS011;9980;51.020;7.772;2022-08-19T12:54:46;10.48;;;6.88;;
19664;SDS011;9980;51.020;7.772;2022-08-19T12:57:17;8.43;;;7.63;;
19664;SDS011;9980;51.020;7.772;2022-08-19T12:59:44;8.15;;;7.45;;
19664;SDS011;9980;51.020;7.772;2022-08-19T13:02:11;8.57;;;7.78;;
19664;SDS011;9980;51.020;7.772;2022-08-19T13:04:38;8.23;;;7.45;;
19664;SDS011;9980;51.020;7.772;2022-08-19T13:07:07;12.63;;;6.60;;
19664;SDS011;9980;51.020;7.772;2022-08-19T13:09:35;6.97;;;6.28;;
19664;SDS011;9980;51.020;7.772;2022-08-19T13:12:03;7.47;;;6.18;;
19664;SDS011;9980;51.020;7.772;2022-08-19T13:14:34;7.15;;;6.40;;
19664;SDS011;9980;51.020;7.772;2022-08-19T13:17:02;7.18;;;6.47;;
19664;SDS011;9980;51.020;7.772;2022-08-19T13:19:29;6.75;;;5.93;;
19664;SDS011;9980;51.020;7.772;2022-08-19T13:21:57;7.13;;;5.72;;
19664;SDS011;9980;51.020;7.772;2022-08-19T13:24:25;5.85;;;5.35;;
19664;SDS011;9980;51.020;7.772;2022-08-19T13:27:02;10.43;;;5.43;;
19664;SDS011;9980;51.020;7.772;2022-08-19T13:29:29;6.40;;;5.50;;
19664;SDS011;9980;51.020;7.772;2022-08-19T13:32:15;6.93;;;5.85;;
19664;SDS011;9980;51.020;7.772;2022-08-19T13:35:02;5.95;;;4.68;;
19664;SDS011;9980;51.020;7.772;2022-08-19T13:37:31;4.90;;;4.40;;
19664;SDS011;9980;51.020;7.772;2022-08-19T13:40:14;5.00;;;4.40;;
19664;SDS011;9980;51.020;7.772;2022-08-19T13:42:51;5.32;;;4.82;;
19664;SDS011;9980;51.020;7.772;2022-08-19T13:45:22;6.07;;;4.45;;
19664;SDS011;9980;51.020;7.772;2022-08-19T13:47:53;7.05;;;4.45;;
19664;SDS011;9980;51.020;7.772;2022-08-19T13:50:26;5.32;;;4.30;;
19664;SDS011;9980;51.020;7.772;2022-08-19T13:53:00;5.82;;;4.03;;
19664;SDS011;9980;51.020;7.772;2022-08-19T13:55:28;5.50;;;3.70;;
19664;SDS011;9980;51.020;7.772;2022-08-19T13:57:58;4.35;;;3.88;;
19664;SDS011;9980;51.020;7.772;2022-08-19T14:00:29;4.53;;;4.13;;
19664;SDS011;9980;51.020;7.772;2022-08-19T14:03:02;4.45;;;4.05;;
19664;SDS011;9980;51.020;7.772;2022-08-19T14:05:34;4.03;;;3.67;;
19664;SDS011;9980;51.020;7.772;2022-08-19T14:08:03;4.50;;;4.10;;
19664;SDS011;9980;51.020;7.772;2022-08-19T14:10:30;5.00;;;4.60;;
19664;SDS011;9980;51.020;7.772;2022-08-19T14:13:01;6.72;;;4.57;;
19664;SDS011;9980;51.020;7.772;2022-08-19T14:15:30;7.75;;;4.93;;
19664;SDS011;9980;51.020;7.772;2022-08-19T14:17:57;5.43;;;4.78;;
19664;SDS011;9980;51.020;7.772;2022-08-19T14:20:28;6.82;;;6.13;;
19664;SDS011;9980;51.020;7.772;2022-08-19T14:22:55;6.20;;;5.50;;
19664;SDS011;9980;51.020;7.772;2022-08-19T14:25:23;5.70;;;5.15;;
19664;SDS011;9980;51.020;7.772;2022-08-19T14:27:54;6.57;;;5.93;;
19664;SDS011;9980;51.020;7.772;2022-08-19T14:30:29;8.32;;;5.43;;
19664;SDS011;9980;51.020;7.772;2022-08-19T14:32:59;6.82;;;5.78;;
19664;SDS011;9980;51.020;7.772;2022-08-19T14:35:29;10.80;;;6.18;;
19664;SDS011;9980;51.020;7.772;2022-08-19T14:38:02;8.18;;;6.28;;
19664;SDS011;9980;51.020;7.772;2022-08-19T14:40:32;6.47;;;5.88;;
19664;SDS011;9980;51.020;7.772;2022-08-19T14:43:00;6.95;;;5.93;;
19664;SDS011;9980;51.020;7.772;2022-08-19T14:45:35;6.05;;;5.45;;
19664;SDS011;9980;51.020;7.772;2022-08-19T14:48:07;6.85;;;6.03;;
19664;SDS011;9980;51.020;7.772;2022-08-19T14:50:44;6.72;;;6.10;;
19664;SDS011;9980;51.020;7.772;2022-08-19T14:53:12;5.68;;;5.20;;
19664;SDS011;9980;51.020;7.772;2022-08-19T14:55:43;7.28;;;6.15;;
19664;SDS011;9980;51.020;7.772;2022-08-19T14:58:12;7.13;;;5.10;;
19664;SDS011;9980;51.020;7.772;2022-08-19T15:00:56;6.85;;;5.72;;
19664;SDS011;9980;51.020;7.772;2022-08-19T15:03:25;8.57;;;5.68;;
19664;SDS011;9980;51.020;7.772;2022-08-19T15:05:53;6.25;;;5.65;;
19664;SDS011;9980;51.020;7.772;2022-08-19T15:08:24;7.88;;;5.25;;
19664;SDS011;9980;51.020;7.772;2022-08-19T15:10:52;5.25;;;4.75;;
19664;SDS011;9980;51.020;7.772;2022-08-19T15:13:20;5.15;;;4.75;;
19664;SDS011;9980;51.020;7.772;2022-08-19T15:15:47;5.47;;;4.50;;
19664;SDS011;9980;51.020;7.772;2022-08-19T15:18:15;6.45;;;4.32;;
19664;SDS011;9980;51.020;7.772;2022-08-19T15:20:42;6.05;;;5.25;;
19664;SDS011;9980;51.020;7.772;2022-08-19T15:23:13;4.72;;;4.32;;